Hauptseite
METAR-TAF:

METAR-TAF

Flughäfen :

Syros, Griechenland

Breite: 37-25-16N, Länge: 024-56-54E, Höhe: 73 m

Beobachtung

Neuester Wetterbericht von vor 48 Minuten, um 00:20 UTC
Wind 8 kt aus West, variierte zwischen West/Südwest und Nordwest
Temperatur 23°C
Luftfeuchtigkeit 65%
Luftdruck 1008 hPa

METAR: LGSO 270020Z AUTO 26008KT 250V310 //// // ////// 23/16 Q1008 RE//

Zeit: 04:08 (01:08 UTC)


TAF: fehlend

Wetterbeobachtungen und Prognosen von mehr als 4000 Flughäfen (METAR und TAF Bericht).

Die verfügbaren Stationen werden durch gelbe und rote Markierungen auf der Karte dargestellt.

Führen Sie die Maus auf sie, um den Namen der Station zu sehen.

Darauf klicken, um die Beobachtung von Wetterbeobachtungen und Prognosen zu sehen.

Um die Karte zu ändern : klicken Sie auf den grünen Tasten mit einem schwarzen Kreuz Zum Vergrößern, auf den grünen Button mit einem Gedankenstrich zu verkleinern, oder auf die grünen Pfeile für benachbarte Karten.


METAR-TAF: